Time;durP1;ratioP1;P1;durP2;ratioP2;P2;SDS_P1;SDS_P2;PMS_P1;PMS_P2;Temp;Humidity;BMP_temperature;BMP_pressure;BME280_temperature;BME280_humidity;BME280_pressure;Samples;Min_cycle;Max_cycle;Signal;HPM_P1;HPM_P2
2024/01/28 00:00:57;;;;;;;45.23;17.33;;;5.40;70.90;;;;;;5093885;28;20028;-72
2024/01/28 00:03:22;;;;;;;47.07;18.40;;;5.40;71.00;;;;;;5086740;28;20039;-71
2024/01/28 00:05:49;;;;;;;33.47;15.70;;;5.40;71.00;;;;;;5096873;28;20342;-72
2024/01/28 00:08:15;;;;;;;33.10;16.27;;;5.40;70.90;;;;;;5097229;28;20021;-72
2024/01/28 00:10:41;;;;;;;26.60;12.53;;;5.30;70.90;;;;;;5097213;28;20178;-71
2024/01/28 00:13:06;;;;;;;27.23;12.73;;;5.30;70.90;;;;;;5090074;28;20052;-73
2024/01/28 00:15:32;;;;;;;28.70;13.17;;;5.30;71.00;;;;;;5095378;28;20054;-73
2024/01/28 00:17:58;;;;;;;24.93;11.20;;;5.30;71.00;;;;;;5096865;28;20020;-74
2024/01/28 00:20:23;;;;;;;21.13;11.57;;;5.30;71.00;;;;;;5097029;28;20072;-73
2024/01/28 00:22:49;;;;;;;22.67;12.07;;;5.30;71.00;;;;;;5097263;28;20361;-74
2024/01/28 00:25:16;;;;;;;20.17;11.27;;;5.30;70.90;;;;;;5097620;28;20024;-73
2024/01/28 00:27:42;;;;;;;19.70;10.47;;;5.20;70.90;;;;;;5096045;28;20039;-73
2024/01/28 00:30:11;;;;;;;18.07;9.83;;;5.20;71.50;;;;;;5095504;28;20028;-74
2024/01/28 00:32:37;;;;;;;18.03;9.07;;;5.20;70.90;;;;;;5083086;28;20111;-73
2024/01/28 00:35:04;;;;;;;17.23;9.43;;;5.20;70.90;;;;;;5094270;28;20153;-74
2024/01/28 00:37:29;;;;;;;14.47;8.90;;;5.20;70.90;;;;;;5096167;28;20028;-73
2024/01/28 00:39:55;;;;;;;16.37;9.17;;;5.20;70.90;;;;;;5096423;28;20111;-72
2024/01/28 00:42:21;;;;;;;17.83;9.70;;;5.20;70.90;;;;;;5096779;28;20108;-72
2024/01/28 00:44:47;;;;;;;17.63;8.17;;;5.20;70.90;;;;;;5095645;28;20024;-71
2024/01/28 00:47:12;;;;;;;15.80;8.90;;;5.20;70.80;;;;;;5097551;28;20094;-71
2024/01/28 00:49:38;;;;;;;18.93;9.17;;;5.20;70.80;;;;;;5095039;28;20044;-72
2024/01/28 00:52:04;;;;;;;18.33;9.33;;;5.20;70.80;;;;;;5096460;28;20090;-71
2024/01/28 00:54:30;;;;;;;16.60;8.43;;;5.20;70.80;;;;;;5095455;28;20016;-71
2024/01/28 00:56:58;;;;;;;17.37;9.27;;;5.20;70.90;;;;;;5112749;28;20035;-71
2024/01/28 00:59:24;;;;;;;17.40;9.10;;;5.10;70.90;;;;;;5095216;28;20046;-72
2024/01/28 01:01:50;;;;;;;19.37;9.00;;;5.20;70.90;;;;;;5096034;28;20020;-72
2024/01/28 01:04:15;;;;;;;20.93;8.93;;;5.20;70.90;;;;;;5088041;28;20063;-71
2024/01/28 01:06:44;;;;;;;16.97;8.13;;;5.20;70.90;;;;;;5095555;28;20020;-72
2024/01/28 01:09:11;;;;;;;14.80;7.43;;;5.20;71.00;;;;;;5095262;28;20371;-71
2024/01/28 01:11:36;;;;;;;20.13;7.87;;;5.20;71.00;;;;;;5095102;28;20048;-71
2024/01/28 01:14:03;;;;;;;15.37;8.37;;;5.20;70.90;;;;;;5095297;28;20047;-72
2024/01/28 01:16:29;;;;;;;14.67;7.57;;;5.20;70.90;;;;;;5095460;28;20035;-72
2024/01/28 01:18:55;;;;;;;13.80;7.63;;;5.20;70.80;;;;;;5095502;28;20024;-71
2024/01/28 01:21:21;;;;;;;15.60;7.73;;;5.30;70.80;;;;;;5093201;28;20494;-71
2024/01/28 01:23:47;;;;;;;16.47;8.10;;;5.20;70.80;;;;;;5089054;28;20051;-71
2024/01/28 01:26:13;;;;;;;17.97;9.00;;;5.20;70.90;;;;;;5094932;28;20028;-71
2024/01/28 01:28:39;;;;;;;15.73;8.30;;;5.20;70.90;;;;;;5096154;28;20039;-71
2024/01/28 01:31:05;;;;;;;13.07;6.73;;;5.10;71.00;;;;;;5095496;28;20445;-71
2024/01/28 01:33:31;;;;;;;16.70;7.80;;;5.10;71.00;;;;;;5094800;28;20028;-72
2024/01/28 01:35:57;;;;;;;13.47;8.10;;;5.10;71.00;;;;;;5096758;28;20024;-71
2024/01/28 01:38:23;;;;;;;14.37;7.80;;;5.00;71.00;;;;;;5095871;28;20036;-71
2024/01/28 01:40:49;;;;;;;15.37;7.23;;;5.00;71.00;;;;;;5087378;28;20044;-71
2024/01/28 01:43:15;;;;;;;14.83;7.73;;;5.00;71.00;;;;;;5095697;28;20040;-71
2024/01/28 01:45:42;;;;;;;14.83;7.37;;;5.00;71.10;;;;;;5078620;28;20043;-71
2024/01/28 01:48:10;;;;;;;14.57;6.97;;;5.00;71.00;;;;;;5095896;28;20036;-73
2024/01/28 01:50:38;;;;;;;15.87;7.83;;;5.00;71.00;;;;;;5095273;28;20270;-74
2024/01/28 01:53:05;;;;;;;16.73;8.70;;;5.00;71.00;;;;;;5094976;28;20042;-71
2024/01/28 01:55:36;;;;;;;13.67;7.57;;;5.00;71.10;;;;;;5095190;28;20028;-73
2024/01/28 01:58:03;;;;;;;16.58;6.43;;;5.00;71.10;;;;;;5094767;28;20032;-73
2024/01/28 02:00:31;;;;;;;17.77;7.73;;;4.90;71.20;;;;;;5094180;28;20040;-73
2024/01/28 02:02:56;;;;;;;18.97;7.40;;;5.00;71.20;;;;;;5095372;28;20046;-73
2024/01/28 02:05:22;;;;;;;17.37;8.40;;;4.90;71.20;;;;;;5094919;28;20032;-71
2024/01/28 02:07:49;;;;;;;15.60;7.50;;;4.90;71.20;;;;;;5095478;28;20492;-71
2024/01/28 02:10:15;;;;;;;16.23;8.57;;;4.90;71.20;;;;;;5095334;28;20084;-71
2024/01/28 02:12:43;;;;;;;15.33;8.13;;;4.90;71.20;;;;;;5092033;28;20028;-73
2024/01/28 02:15:10;;;;;;;16.77;8.27;;;4.90;71.20;;;;;;5095015;28;20154;-73
2024/01/28 02:17:36;;;;;;;15.07;7.97;;;4.90;71.20;;;;;;5094914;28;20028;-73
2024/01/28 02:20:03;;;;;;;17.03;7.83;;;4.90;71.30;;;;;;5095021;28;20042;-73
2024/01/28 02:22:29;;;;;;;14.20;7.60;;;4.90;71.30;;;;;;5094734;28;20107;-73
2024/01/28 02:24:57;;;;;;;13.23;6.90;;;4.90;71.30;;;;;;5093452;28;20111;-73
2024/01/28 02:27:23;;;;;;;13.90;7.10;;;4.80;71.30;;;;;;5094114;28;20466;-73
2024/01/28 02:29:48;;;;;;;17.07;7.37;;;4.80;71.30;;;;;;5094708;28;20028;-73
2024/01/28 02:32:16;;;;;;;16.80;6.90;;;4.80;71.30;;;;;;5094528;28;20452;-73
2024/01/28 02:34:42;;;;;;;12.47;6.57;;;4.80;71.30;;;;;;5100685;28;20021;-73
2024/01/28 02:37:10;;;;;;;13.80;6.57;;;4.80;71.40;;;;;;5093326;28;20024;-73
2024/01/28 02:39:39;;;;;;;15.63;7.17;;;4.80;71.40;;;;;;5093780;28;20406;-73
2024/01/28 02:42:06;;;;;;;12.47;6.43;;;4.80;71.40;;;;;;5093622;28;20449;-74
2024/01/28 02:44:32;;;;;;;17.00;7.43;;;4.70;71.40;;;;;;5094882;28;20035;-73
2024/01/28 02:46:57;;;;;;;12.90;6.10;;;4.70;71.40;;;;;;5093528;28;20024;-73
2024/01/28 02:49:24;;;;;;;12.33;6.50;;;4.70;71.40;;;;;;5093490;28;20101;-73
2024/01/28 02:51:50;;;;;;;13.13;6.50;;;4.70;71.40;;;;;;5093245;28;20016;-73
2024/01/28 02:54:16;;;;;;;16.73;7.50;;;4.60;71.40;;;;;;5092825;28;20091;-73
2024/01/28 02:56:42;;;;;;;14.97;6.63;;;4.60;71.40;;;;;;5093276;28;20026;-73
2024/01/28 02:59:10;;;;;;;15.43;7.10;;;4.60;71.40;;;;;;5094399;28;20526;-73
2024/01/28 03:01:45;;;;;;;10.90;6.00;;;4.70;71.50;;;;;;5087934;28;20028;-73
2024/01/28 03:04:10;;;;;;;13.97;6.60;;;4.70;71.40;;;;;;5094129;28;20027;-73
2024/01/28 03:06:36;;;;;;;12.83;5.97;;;4.60;71.30;;;;;;5094392;28;20042;-73
2024/01/28 03:09:04;;;;;;;12.37;6.07;;;4.60;71.30;;;;;;5094174;28;20024;-73
2024/01/28 03:11:30;;;;;;;13.40;6.23;;;4.60;71.30;;;;;;5093844;28;20500;-73
2024/01/28 03:13:56;;;;;;;17.60;7.03;;;4.60;71.30;;;;;;5093371;28;20113;-72
2024/01/28 03:16:22;;;;;;;15.27;6.97;;;4.50;71.30;;;;;;5092719;28;20444;-71
2024/01/28 03:18:48;;;;;;;14.70;6.53;;;4.60;71.40;;;;;;5109498;28;20551;-71
2024/01/28 03:21:14;;;;;;;13.23;6.33;;;4.60;71.40;;;;;;5110088;28;20115;-71
2024/01/28 03:23:39;;;;;;;11.63;5.83;;;4.60;71.40;;;;;;5092659;28;20031;-71
2024/01/28 03:26:05;;;;;;;13.30;6.30;;;4.60;71.30;;;;;;5075292;28;20042;-71
2024/01/28 03:28:31;;;;;;;15.97;6.53;;;4.60;71.30;;;;;;5092550;28;20368;-72
2024/01/28 03:30:57;;;;;;;15.23;7.17;;;4.60;71.30;;;;;;5093340;28;20437;-72
2024/01/28 03:33:23;;;;;;;12.80;6.43;;;4.60;71.40;;;;;;5092918;28;20085;-71
2024/01/28 03:35:48;;;;;;;16.10;6.77;;;4.60;71.30;;;;;;5094076;28;20024;-72
2024/01/28 03:38:14;;;;;;;16.57;7.03;;;4.60;71.30;;;;;;5096809;28;20453;-72
2024/01/28 03:40:40;;;;;;;15.97;6.30;;;4.50;71.20;;;;;;5096831;28;20060;-71
2024/01/28 03:43:06;;;;;;;13.87;6.40;;;4.50;71.20;;;;;;5097309;28;20024;-71
2024/01/28 03:45:31;;;;;;;13.00;5.93;;;4.50;71.30;;;;;;5097610;28;20036;-71
2024/01/28 03:47:57;;;;;;;15.60;6.60;;;4.50;71.30;;;;;;5096994;28;20061;-72
2024/01/28 03:50:24;;;;;;;14.60;6.10;;;4.50;71.40;;;;;;5097432;28;20043;-71
2024/01/28 03:52:50;;;;;;;15.53;6.93;;;4.50;71.30;;;;;;5096745;28;20136;-71
2024/01/28 03:55:15;;;;;;;16.00;6.33;;;4.50;71.40;;;;;;5097664;28;20452;-71
2024/01/28 03:57:43;;;;;;;13.23;6.50;;;4.50;71.30;;;;;;5098041;28;20055;-71
2024/01/28 04:00:11;;;;;;;12.03;5.50;;;4.50;71.40;;;;;;5097638;28;20090;-71
2024/01/28 04:02:40;;;;;;;13.70;6.25;;;4.50;71.30;;;;;;5097261;28;20032;-71
2024/01/28 04:05:06;;;;;;;12.30;5.50;;;4.50;71.40;;;;;;5112044;27;20484;-71
2024/01/28 04:07:32;;;;;;;9.57;5.30;;;4.40;71.40;;;;;;5097009;28;20543;-71
2024/01/28 04:09:58;;;;;;;16.60;6.67;;;4.40;71.40;;;;;;5096413;28;20153;-72
2024/01/28 04:12:23;;;;;;;13.53;6.33;;;4.40;71.40;;;;;;5096181;28;20113;-72
2024/01/28 04:14:49;;;;;;;9.97;5.43;;;4.40;71.50;;;;;;5094908;28;20107;-72
2024/01/28 04:17:16;;;;;;;16.07;6.47;;;4.40;71.50;;;;;;5096231;28;20040;-72
2024/01/28 04:19:41;;;;;;;11.77;6.13;;;4.40;71.50;;;;;;5096229;28;20027;-72
2024/01/28 04:22:10;;;;;;;13.43;5.77;;;4.40;71.60;;;;;;5097756;28;20028;-72
2024/01/28 04:24:36;;;;;;;11.23;5.43;;;4.40;71.60;;;;;;5113299;28;20107;-72
2024/01/28 04:27:02;;;;;;;14.97;6.37;;;4.40;71.50;;;;;;5096454;28;20383;-72
2024/01/28 04:29:28;;;;;;;13.33;6.37;;;4.30;71.50;;;;;;5097113;28;20110;-73
2024/01/28 04:31:54;;;;;;;12.83;5.97;;;4.30;71.50;;;;;;5109762;27;20342;-72
2024/01/28 04:34:21;;;;;;;11.93;6.27;;;4.30;71.50;;;;;;5097534;28;20052;-72
2024/01/28 04:36:46;;;;;;;11.23;5.63;;;4.30;71.60;;;;;;5096749;28;20020;-73
2024/01/28 04:39:15;;;;;;;13.23;6.00;;;4.30;71.60;;;;;;5096215;28;20476;-72
2024/01/28 04:41:41;;;;;;;14.17;5.80;;;4.30;71.60;;;;;;5096564;28;20352;-72
2024/01/28 04:44:08;;;;;;;13.77;5.70;;;4.30;71.60;;;;;;5096773;28;20032;-72
2024/01/28 04:46:33;;;;;;;12.60;6.03;;;4.30;71.60;;;;;;5096554;28;20020;-72
2024/01/28 04:49:03;;;;;;;14.13;5.80;;;4.30;71.60;;;;;;5095618;28;20040;-72
2024/01/28 04:51:30;;;;;;;10.97;5.63;;;4.30;71.50;;;;;;5095869;28;20119;-72
2024/01/28 04:53:57;;;;;;;12.33;6.40;;;4.30;71.50;;;;;;5113200;28;20023;-72
2024/01/28 04:56:23;;;;;;;11.10;5.57;;;4.20;71.50;;;;;;5096762;28;20034;-73
2024/01/28 04:58:49;;;;;;;15.57;5.67;;;4.30;71.70;;;;;;5095873;28;20386;-72
2024/01/28 05:01:15;;;;;;;11.23;5.23;;;4.30;71.70;;;;;;5078914;28;20100;-72
2024/01/28 05:03:41;;;;;;;10.47;5.30;;;4.30;71.60;;;;;;5096631;28;20080;-72
2024/01/28 05:06:07;;;;;;;12.10;5.97;;;4.30;71.50;;;;;;5096767;28;20111;-72
2024/01/28 05:08:33;;;;;;;14.17;5.80;;;4.30;71.50;;;;;;5094897;28;20043;-72
2024/01/28 05:10:58;;;;;;;13.73;5.40;;;4.30;71.50;;;;;;5095361;28;20028;-72
2024/01/28 05:13:24;;;;;;;13.23;6.40;;;4.30;71.50;;;;;;5086647;28;20024;-72
2024/01/28 05:15:50;;;;;;;12.07;6.17;;;4.30;71.60;;;;;;5090906;28;20344;-72
2024/01/28 05:18:16;;;;;;;16.07;5.93;;;4.30;71.60;;;;;;5096175;28;20038;-72
2024/01/28 05:20:42;;;;;;;15.37;6.13;;;4.30;71.70;;;;;;5095955;28;20046;-72
2024/01/28 05:23:09;;;;;;;11.77;5.37;;;4.20;71.60;;;;;;5093404;28;20055;-72
2024/01/28 05:25:34;;;;;;;12.97;6.20;;;4.20;71.60;;;;;;5092359;28;20077;-72
2024/01/28 05:28:00;;;;;;;13.50;5.87;;;4.30;71.60;;;;;;5093349;28;20035;-72
2024/01/28 05:30:26;;;;;;;15.70;5.73;;;4.30;71.60;;;;;;5095365;28;20032;-72
2024/01/28 05:32:51;;;;;;;13.97;5.87;;;4.20;71.60;;;;;;5103782;27;20060;-72
2024/01/28 05:35:17;;;;;;;12.03;5.17;;;4.20;71.70;;;;;;5096250;28;20031;-72
2024/01/28 05:37:43;;;;;;;12.37;5.97;;;4.20;71.70;;;;;;5095712;28;20051;-72
2024/01/28 05:40:09;;;;;;;9.17;4.93;;;4.20;71.70;;;;;;5096202;28;20032;-72
2024/01/28 05:42:35;;;;;;;11.67;5.83;;;4.20;71.70;;;;;;5095496;28;20051;-72
2024/01/28 05:45:01;;;;;;;11.87;5.57;;;4.20;71.80;;;;;;5093959;28;20028;-72
2024/01/28 05:47:27;;;;;;;11.43;4.97;;;4.20;71.80;;;;;;5094996;28;20109;-72
2024/01/28 05:49:52;;;;;;;11.93;5.27;;;4.20;71.80;;;;;;5095450;28;20449;-72
2024/01/28 05:52:18;;;;;;;10.70;5.57;;;4.20;71.80;;;;;;5094220;28;20034;-72
2024/01/28 05:54:44;;;;;;;12.63;5.83;;;4.20;71.80;;;;;;5076994;28;20053;-72
2024/01/28 05:57:10;;;;;;;12.03;5.30;;;4.20;71.80;;;;;;5094688;28;20471;-72
2024/01/28 05:59:36;;;;;;;13.47;5.30;;;4.20;71.80;;;;;;5095338;28;20024;-72
2024/01/28 06:02:03;;;;;;;12.20;4.80;;;4.20;71.70;;;;;;5091040;28;20035;-72
2024/01/28 06:04:30;;;;;;;15.60;5.77;;;4.30;71.70;;;;;;5096838;28;20119;-72
2024/01/28 06:06:56;;;;;;;11.20;4.90;;;4.20;71.70;;;;;;5094790;28;20037;-72
2024/01/28 06:09:21;;;;;;;11.03;6.03;;;4.20;71.60;;;;;;5094934;28;20024;-72
2024/01/28 06:11:47;;;;;;;10.37;5.50;;;4.20;71.70;;;;;;5095206;28;20035;-72
2024/01/28 06:14:13;;;;;;;10.80;5.27;;;4.20;71.70;;;;;;5109053;27;20464;-73
2024/01/28 06:16:39;;;;;;;12.57;5.83;;;4.10;71.70;;;;;;5095533;28;20444;-72
2024/01/28 06:19:04;;;;;;;15.00;5.27;;;4.10;71.80;;;;;;5094681;28;20028;-72
2024/01/28 06:21:30;;;;;;;10.23;5.10;;;4.10;71.80;;;;;;5095125;28;20032;-72
2024/01/28 06:23:56;;;;;;;9.63;5.00;;;4.10;71.80;;;;;;5095258;28;20040;-73
2024/01/28 06:26:22;;;;;;;13.07;5.90;;;4.10;71.80;;;;;;5094396;28;20036;-72
2024/01/28 06:28:48;;;;;;;10.47;5.10;;;4.10;71.80;;;;;;5095068;28;20117;-73
2024/01/28 06:31:15;;;;;;;16.27;5.83;;;4.10;71.80;;;;;;5094753;28;20152;-72
2024/01/28 06:33:41;;;;;;;13.13;5.30;;;4.10;71.80;;;;;;5094548;28;20365;-72
2024/01/28 06:36:07;;;;;;;17.10;5.70;;;4.10;71.80;;;;;;5108990;27;20031;-71
2024/01/28 06:38:33;;;;;;;10.37;5.43;;;4.00;71.70;;;;;;5093953;28;20024;-72
2024/01/28 06:41:00;;;;;;;12.00;5.50;;;4.10;71.80;;;;;;5094862;28;20098;-71
2024/01/28 06:43:26;;;;;;;12.70;5.03;;;4.00;71.70;;;;;;5093871;28;20039;-71
2024/01/28 06:45:52;;;;;;;11.47;5.90;;;4.10;71.80;;;;;;5093939;28;20020;-72
2024/01/28 06:48:18;;;;;;;10.07;5.27;;;4.10;71.80;;;;;;5093605;28;20326;-71
2024/01/28 06:50:44;;;;;;;14.97;6.03;;;4.10;71.80;;;;;;5094472;28;20047;-72
2024/01/28 06:53:10;;;;;;;13.10;5.77;;;4.10;71.70;;;;;;5093768;28;20401;-71
2024/01/28 06:55:36;;;;;;;10.40;5.07;;;4.10;71.70;;;;;;5094280;28;20051;-71
2024/01/28 06:58:02;;;;;;;12.03;5.50;;;4.10;71.80;;;;;;5094201;28;20028;-71
2024/01/28 07:00:28;;;;;;;14.47;5.43;;;4.10;71.80;;;;;;5093057;28;20431;-72
2024/01/28 07:02:54;;;;;;;10.13;5.17;;;4.10;71.80;;;;;;5094391;28;20078;-71
2024/01/28 07:05:20;;;;;;;12.63;5.43;;;4.10;71.80;;;;;;5093792;28;20382;-71
2024/01/28 07:07:46;;;;;;;7.77;4.60;;;4.00;71.70;;;;;;5093370;28;20036;-71
2024/01/28 07:10:12;;;;;;;11.43;5.87;;;4.00;71.80;;;;;;5092544;28;20115;-71
2024/01/28 07:12:42;;;;;;;15.57;6.30;;;4.00;71.80;;;;;;5090576;28;20112;-68
2024/01/28 07:15:08;;;;;;;11.37;5.43;;;4.00;71.80;;;;;;5093256;28;20027;-69
2024/01/28 07:17:34;;;;;;;12.50;5.07;;;4.00;71.80;;;;;;5104704;28;20053;-69
2024/01/28 07:20:00;;;;;;;11.00;5.40;;;4.00;71.80;;;;;;5092344;28;20020;-70
2024/01/28 07:22:25;;;;;;;12.03;4.97;;;4.00;71.80;;;;;;5093797;28;20024;-70
2024/01/28 07:24:51;;;;;;;10.90;5.43;;;4.00;71.70;;;;;;5087939;28;20039;-69
2024/01/28 07:27:17;;;;;;;10.43;5.10;;;4.00;71.70;;;;;;5093541;28;20032;-69
2024/01/28 07:29:43;;;;;;;12.50;5.60;;;4.00;71.80;;;;;;5093915;28;20021;-70
2024/01/28 07:32:13;;;;;;;10.07;5.13;;;3.90;71.70;;;;;;5094710;28;20119;-70
2024/01/28 07:34:42;;;;;;;10.73;4.67;;;3.90;71.80;;;;;;5094126;28;20348;-70
2024/01/28 07:37:08;;;;;;;9.30;4.77;;;3.90;71.80;;;;;;5095080;28;20043;-69
2024/01/28 07:39:34;;;;;;;11.27;5.07;;;3.90;71.80;;;;;;5089091;28;20058;-69
2024/01/28 07:42:00;;;;;;;10.27;4.97;;;4.00;71.80;;;;;;5094869;28;20198;-69
2024/01/28 07:44:26;;;;;;;10.43;4.67;;;4.00;71.80;;;;;;5093100;28;20086;-70
2024/01/28 07:46:52;;;;;;;10.67;5.37;;;4.00;71.70;;;;;;5093374;28;20016;-70
2024/01/28 07:49:19;;;;;;;9.33;5.20;;;4.00;71.70;;;;;;5093198;28;20040;-70
2024/01/28 07:51:45;;;;;;;9.60;4.80;;;4.10;71.80;;;;;;5108746;28;20083;-70
2024/01/28 07:54:11;;;;;;;13.17;4.77;;;4.10;71.80;;;;;;5093706;28;20453;-69
2024/01/28 07:56:37;;;;;;;12.97;5.07;;;4.10;71.80;;;;;;5097586;28;20016;-69
2024/01/28 07:59:03;;;;;;;12.80;5.50;;;4.10;71.80;;;;;;5092859;28;20380;-69
2024/01/28 08:01:30;;;;;;;9.77;4.70;;;4.20;71.80;;;;;;5096460;28;20103;-69
2024/01/28 08:03:59;;;;;;;12.73;4.80;;;4.20;71.80;;;;;;5092491;28;20024;-69
2024/01/28 08:06:26;;;;;;;10.77;5.00;;;4.20;71.80;;;;;;5092605;28;20040;-69
2024/01/28 08:08:52;;;;;;;13.07;5.33;;;4.20;71.70;;;;;;5092420;28;20028;-70
2024/01/28 08:11:18;;;;;;;10.83;5.30;;;4.30;71.80;;;;;;5092544;28;20042;-70
2024/01/28 08:13:45;;;;;;;12.20;4.67;;;4.40;71.80;;;;;;5091834;28;20099;-70
2024/01/28 08:16:10;;;;;;;13.30;5.90;;;4.40;71.80;;;;;;5092211;28;20020;-69
2024/01/28 08:18:38;;;;;;;12.97;5.93;;;4.50;71.70;;;;;;5092724;28;20028;-69
2024/01/28 08:21:05;;;;;;;13.77;5.97;;;4.70;71.60;;;;;;5092507;28;20028;-68
2024/01/28 08:23:31;;;;;;;12.00;6.47;;;4.80;71.50;;;;;;5095046;28;20052;-68
2024/01/28 08:25:57;;;;;;;13.67;5.83;;;4.90;71.30;;;;;;5096020;28;20028;-68
2024/01/28 08:28:22;;;;;;;12.53;5.93;;;4.90;71.20;;;;;;5099414;27;20037;-69
2024/01/28 08:30:48;;;;;;;11.30;6.03;;;5.00;71.20;;;;;;5086867;28;20043;-69
2024/01/28 08:33:14;;;;;;;12.27;5.67;;;5.00;71.10;;;;;;5088932;28;20032;-68
2024/01/28 08:35:40;;;;;;;11.07;5.40;;;5.10;71.20;;;;;;5085353;28;20031;-68
2024/01/28 08:38:06;;;;;;;12.50;5.50;;;5.20;71.10;;;;;;5080960;28;20129;-69
2024/01/28 08:40:32;;;;;;;11.30;5.37;;;5.30;71.10;;;;;;5079312;28;20057;-69
2024/01/28 08:42:58;;;;;;;9.93;5.03;;;5.40;70.90;;;;;;5087852;28;20027;-69
2024/01/28 08:45:24;;;;;;;11.50;4.63;;;5.50;70.70;;;;;;5085301;28;20024;-69
2024/01/28 08:47:52;;;;;;;12.53;5.20;;;5.50;70.60;;;;;;5096542;28;20072;-70
2024/01/28 08:50:18;;;;;;;12.00;4.97;;;5.50;70.60;;;;;;5093513;28;20048;-69
2024/01/28 08:52:44;;;;;;;10.60;5.03;;;5.50;70.70;;;;;;5094076;28;20039;-69
2024/01/28 08:55:10;;;;;;;10.33;5.23;;;5.60;70.70;;;;;;5089975;28;20448;-69
2024/01/28 08:57:36;;;;;;;14.57;4.80;;;5.70;70.50;;;;;;5090203;28;20028;-69
2024/01/28 09:00:05;;;;;;;10.77;4.27;;;5.80;70.20;;;;;;5070673;28;20040;-70
2024/01/28 09:02:35;;;;;;;10.87;4.53;;;6.00;70.00;;;;;;5090733;28;20028;-68
2024/01/28 09:05:01;;;;;;;14.93;4.53;;;6.20;69.60;;;;;;5087111;28;20024;-69
2024/01/28 09:07:28;;;;;;;12.07;4.10;;;6.40;69.40;;;;;;5088774;28;20036;-69
2024/01/28 09:09:53;;;;;;;9.07;4.33;;;6.50;69.00;;;;;;5084567;28;20032;-68
2024/01/28 09:12:20;;;;;;;12.13;4.73;;;6.70;68.70;;;;;;5083489;28;20106;-69
2024/01/28 09:14:45;;;;;;;8.50;4.00;;;6.80;68.30;;;;;;5068982;28;20082;-70
2024/01/28 09:17:11;;;;;;;8.03;4.20;;;7.00;68.10;;;;;;5092147;28;20020;-69
2024/01/28 09:19:37;;;;;;;9.10;3.97;;;7.10;67.80;;;;;;5081103;28;20048;-69
2024/01/28 09:22:05;;;;;;;10.27;4.20;;;7.20;67.60;;;;;;5093881;28;20052;-70
2024/01/28 09:24:31;;;;;;;9.73;4.20;;;7.30;67.40;;;;;;5093002;28;20034;-70
2024/01/28 09:26:58;;;;;;;11.63;4.83;;;7.50;67.10;;;;;;5094539;28;20028;-68
2024/01/28 09:29:25;;;;;;;10.00;4.43;;;7.50;66.80;;;;;;5091341;28;20042;-69
2024/01/28 09:31:52;;;;;;;10.10;4.30;;;7.60;66.50;;;;;;5095912;28;20077;-70
2024/01/28 09:34:17;;;;;;;8.23;3.60;;;7.70;66.20;;;;;;5093374;28;20383;-70
2024/01/28 09:36:44;;;;;;;9.70;4.33;;;7.80;66.00;;;;;;5092397;28;20107;-70
2024/01/28 09:39:11;;;;;;;8.60;3.77;;;7.90;65.70;;;;;;5094240;28;20020;-69
2024/01/28 09:41:49;;;;;;;9.63;4.50;;;7.90;65.30;;;;;;5095018;28;20034;-69
2024/01/28 09:44:16;;;;;;;9.70;3.50;;;8.00;64.90;;;;;;5078655;28;20073;-69
2024/01/28 09:46:42;;;;;;;9.57;3.83;;;8.20;64.60;;;;;;5096561;28;20110;-70
2024/01/28 09:49:11;;;;;;;9.90;3.77;;;8.30;64.40;;;;;;5094691;28;20035;-70
2024/01/28 09:51:41;;;;;;;9.70;4.30;;;8.40;64.00;;;;;;5096301;28;20039;-70
2024/01/28 09:54:09;;;;;;;11.33;4.20;;;8.50;63.60;;;;;;5095306;28;20024;-70
2024/01/28 09:56:36;;;;;;;11.03;3.80;;;8.70;63.30;;;;;;5095030;28;20415;-70
2024/01/28 09:59:05;;;;;;;9.30;3.80;;;8.80;63.10;;;;;;5082524;28;20357;-70
2024/01/28 10:01:31;;;;;;;9.67;3.63;;;8.80;62.70;;;;;;5095584;28;20193;-70
2024/01/28 10:04:00;;;;;;;8.45;3.45;;;8.90;62.40;;;;;;5095180;28;20492;-70
2024/01/28 10:06:26;;;;;;;9.75;3.88;;;8.90;62.20;;;;;;5096199;28;20046;-70
2024/01/28 10:08:52;;;;;;;9.30;3.67;;;9.00;62.00;;;;;;5095003;28;20463;-70
2024/01/28 10:11:18;;;;;;;7.78;2.95;;;9.10;61.70;;;;;;5095779;28;20036;-70
2024/01/28 10:13:46;;;;;;;8.05;3.40;;;9.30;61.40;;;;;;5085636;28;20078;-70
2024/01/28 10:16:11;;;;;;;7.78;3.45;;;9.40;61.00;;;;;;5096959;28;20107;-70
2024/01/28 10:18:37;;;;;;;8.23;3.13;;;9.50;60.60;;;;;;5095963;28;20107;-70
2024/01/28 10:21:03;;;;;;;9.90;3.63;;;9.70;60.40;;;;;;5094884;28;20479;-70
2024/01/28 10:23:29;;;;;;;9.85;3.40;;;9.80;60.00;;;;;;5094851;28;20107;-70
2024/01/28 10:26:00;;;;;;;9.18;4.05;;;10.00;59.70;;;;;;5095452;28;20104;-70
2024/01/28 10:28:29;;;;;;;8.88;3.42;;;10.10;59.20;;;;;;5096009;28;20397;-71
2024/01/28 10:30:55;;;;;;;9.60;3.67;;;10.30;59.10;;;;;;5094665;28;20055;-70
2024/01/28 10:33:21;;;;;;;9.48;3.80;;;10.40;58.80;;;;;;5094312;28;20103;-71
2024/01/28 10:35:47;;;;;;;8.55;3.70;;;10.50;58.60;;;;;;5094468;28;20047;-71
2024/01/28 10:38:20;;;;;;;8.65;3.88;;;10.50;58.30;;;;;;5095248;28;20028;-71
2024/01/28 10:40:49;;;;;;;9.00;3.78;;;10.60;58.00;;;;;;5094334;28;20036;-71
2024/01/28 10:43:17;;;;;;;9.55;3.30;;;10.70;58.00;;;;;;5096006;28;20170;-71
2024/01/28 10:45:49;;;;;;;9.70;3.83;;;10.80;57.90;;;;;;5093776;28;20028;-71
2024/01/28 10:48:17;;;;;;;;;;;10.90;57.60;;;;;;5094220;28;20024;-70
2024/01/28 10:50:43;;;;;;;7.35;3.20;;;10.90;57.70;;;;;;5093680;28;19927;-71
2024/01/28 10:53:12;;;;;;;8.65;3.42;;;10.90;57.60;;;;;;5095046;28;20455;-70
2024/01/28 10:55:39;;;;;;;11.57;3.30;;;11.00;57.40;;;;;;5094036;28;20020;-70
2024/01/28 10:58:05;;;;;;;8.80;3.80;;;11.10;57.20;;;;;;5093930;28;20039;-70
2024/01/28 11:00:31;;;;;;;10.75;3.75;;;11.20;57.00;;;;;;5094098;28;20028;-70
2024/01/28 11:02:59;;;;;;;8.23;3.35;;;11.20;56.80;;;;;;5094796;28;20206;-71
2024/01/28 11:05:28;;;;;;;10.00;3.65;;;11.20;56.60;;;;;;5094331;28;20426;-71
2024/01/28 11:07:59;;;;;;;9.18;3.25;;;11.30;56.40;;;;;;5093856;28;20031;-71
2024/01/28 11:10:29;;;;;;;9.50;3.47;;;11.30;56.30;;;;;;5111178;28;20417;-71
2024/01/28 11:12:56;;;;;;;7.47;2.88;;;11.30;56.20;;;;;;5089487;28;20048;-70
2024/01/28 11:15:23;;;;;;;9.85;3.22;;;11.30;56.20;;;;;;5086042;28;20111;-70
2024/01/28 11:17:50;;;;;;;9.50;3.17;;;11.30;56.00;;;;;;5093636;28;20080;-70
2024/01/28 11:20:24;;;;;;;8.30;2.95;;;11.40;55.90;;;;;;5111042;28;20031;-70
2024/01/28 11:22:50;;;;;;;8.05;3.17;;;11.40;55.80;;;;;;5094863;28;20028;-71
2024/01/28 11:25:24;;;;;;;9.27;3.10;;;11.40;55.80;;;;;;5093793;28;20023;-70
2024/01/28 11:27:52;;;;;;;9.02;3.67;;;11.40;55.70;;;;;;5094092;28;20480;-70
2024/01/28 11:30:22;;;;;;;7.90;3.47;;;11.30;55.70;;;;;;5093612;28;20028;-70
2024/01/28 11:32:48;;;;;;;9.00;3.40;;;11.30;55.50;;;;;;5094762;28;20028;-70
2024/01/28 11:35:14;;;;;;;7.10;3.25;;;11.30;55.60;;;;;;5110586;28;20032;-71
2024/01/28 11:37:50;;;;;;;7.65;3.72;;;11.30;55.60;;;;;;5094560;28;20039;-70
2024/01/28 11:40:29;;;;;;;11.60;3.83;;;11.20;55.60;;;;;;5095527;28;20470;-71
2024/01/28 11:42:55;;;;;;;7.45;3.30;;;11.10;55.50;;;;;;5108135;28;20036;-70
2024/01/28 11:45:22;;;;;;;10.10;3.95;;;11.10;55.70;;;;;;5094709;28;20051;-70
2024/01/28 11:47:48;;;;;;;10.10;3.53;;;11.00;55.70;;;;;;5094421;28;20032;-70
2024/01/28 11:50:16;;;;;;;8.07;2.92;;;11.00;55.70;;;;;;5107710;28;20154;-70
2024/01/28 11:52:42;;;;;;;8.48;3.15;;;10.90;55.80;;;;;;5100076;28;20035;-69
2024/01/28 11:55:13;;;;;;;7.72;3.42;;;10.80;55.80;;;;;;5093216;28;20049;-71
2024/01/28 11:57:40;;;;;;;9.90;4.03;;;10.70;55.90;;;;;;5095310;28;20036;-73
2024/01/28 12:00:08;;;;;;;9.75;3.30;;;10.70;56.00;;;;;;5114630;28;20114;-72
2024/01/28 12:02:35;;;;;;;9.70;3.63;;;10.60;56.10;;;;;;5097896;28;20070;-72
2024/01/28 12:05:03;;;;;;;8.18;3.53;;;10.50;56.10;;;;;;5091912;28;20032;-72
2024/01/28 12:07:33;;;;;;;8.32;3.33;;;10.50;56.20;;;;;;5098062;28;20051;-71
2024/01/28 12:10:00;;;;;;;7.40;3.20;;;10.40;56.30;;;;;;5094546;28;20028;-71
2024/01/28 12:12:27;;;;;;;10.48;3.88;;;10.30;56.40;;;;;;5097170;28;20445;-71
2024/01/28 12:14:53;;;;;;;10.77;4.13;;;10.20;56.50;;;;;;5097825;28;20032;-71
2024/01/28 12:17:19;;;;;;;8.73;4.10;;;10.20;56.60;;;;;;5097889;28;20051;-71
2024/01/28 12:19:44;;;;;;;9.15;3.20;;;10.20;56.70;;;;;;5097685;28;20039;-71
2024/01/28 12:22:11;;;;;;;9.10;3.40;;;10.10;56.80;;;;;;5102415;28;20028;-71
2024/01/28 12:24:43;;;;;;;8.32;3.58;;;10.10;56.90;;;;;;5099387;28;20107;-71
2024/01/28 12:27:09;;;;;;;8.98;3.55;;;10.00;56.90;;;;;;5096923;28;20453;-71
2024/01/28 12:29:35;;;;;;;8.38;3.45;;;10.00;57.00;;;;;;5097330;28;20115;-71
2024/01/28 12:32:01;;;;;;;8.10;3.58;;;9.90;57.10;;;;;;5097270;28;20089;-71
2024/01/28 12:34:27;;;;;;;8.25;3.72;;;9.90;57.20;;;;;;5078326;28;20028;-71
2024/01/28 12:36:52;;;;;;;12.10;3.70;;;9.90;57.20;;;;;;5096063;28;20035;-71
2024/01/28 12:39:18;;;;;;;8.05;3.55;;;9.90;57.40;;;;;;5097228;28;20046;-70
2024/01/28 12:41:44;;;;;;;8.35;3.15;;;9.90;57.40;;;;;;5096959;28;20028;-70
2024/01/28 12:44:10;;;;;;;7.57;3.47;;;9.80;57.50;;;;;;5097077;28;20081;-69